Wetterdaten: Montag, 31.08.2015
Datum Zeit Temp. A. Temp. A. min Temp. A. max Feuchte A. Bod.Feucht 4 Luftdruck Regen Wind Richtung Richtung Sonnenschein ET Solar Taupunkt Windchill Windben Empfang
31.08.2015 00:00 20,6 C 20,6 C 20,8 C 83 % 0 cb 1015,2 hPa 0,0 l/m 0,0 km/h (0 Bft) NO 45 0 min 0,025 mm 0 W/m 17,6 C 20,6 C 1,6 km/h (1 Bft) 100,00 %
31.08.2015 00:10 20,3 C 20,3 C 20,6 C 83 % 0 cb 1015,2 hPa 0,0 l/m 0,0 km/h (0 Bft) NO 45 0 min 0,000 mm 0 W/m 17,3 C 20,3 C 1,6 km/h (1 Bft) 100,00 %
31.08.2015 00:20 20,3 C 20,3 C 20,3 C 82 % 0 cb 1015,2 hPa 0,0 l/m 0,0 km/h (0 Bft) NO 45 0 min 0,000 mm 0 W/m 17,1 C 20,3 C 3,2 km/h (1 Bft) 100,00 %
31.08.2015 00:30 20,2 C 20,2 C 20,3 C 83 % 0 cb 1015,3 hPa 0,0 l/m 0,0 km/h (0 Bft) NO 45 0 min 0,000 mm 0 W/m 17,2 C 20,2 C 1,6 km/h (1 Bft) 100,00 %
31.08.2015 00:40 20,1 C 20,1 C 20,2 C 83 % 0 cb 1015,3 hPa 0,0 l/m 0,0 km/h (0 Bft) NO 45 0 min 0,000 mm 0 W/m 17,1 C 20,1 C 1,6 km/h (1 Bft) 100,00 %
31.08.2015 00:50 19,9 C 19,9 C 20,1 C 82 % 0 cb 1015,2 hPa 0,0 l/m 1,6 km/h (1 Bft) NO 45 0 min 0,000 mm 0 W/m 16,7 C 19,9 C 3,2 km/h (1 Bft) 100,00 %
31.08.2015 01:00 20,2 C 19,9 C 20,2 C 81 % 0 cb 1015,2 hPa 0,0 l/m 0,0 km/h (0 Bft) NO 45 0 min 0,025 mm 0 W/m 16,8 C 20,2 C 3,2 km/h (1 Bft) 100,00 %
31.08.2015 01:10 20,1 C 20,1 C 20,2 C 81 % 0 cb 1015,1 hPa 0,0 l/m 0,0 km/h (0 Bft) NO 45 0 min 0,000 mm 0 W/m 16,7 C 20,1 C 1,6 km/h (1 Bft) 96,05 %
31.08.2015 01:20 19,8 C 19,8 C 20,1 C 81 % 0 cb 1015,1 hPa 0,0 l/m 0,0 km/h (0 Bft) NO 45 0 min 0,000 mm 0 W/m 16,4 C 19,8 C 1,6 km/h (1 Bft) 100,00 %
31.08.2015 01:30 19,7 C 19,7 C 19,8 C 82 % 0 cb 1015,1 hPa 0,0 l/m 0,0 km/h (0 Bft) NO 45 0 min 0,000 mm 0 W/m 16,5 C 19,7 C 3,2 km/h (1 Bft) 100,00 %
31.08.2015 01:40 19,7 C 19,6 C 19,7 C 81 % 0 cb 1015,1 hPa 0,0 l/m 1,6 km/h (1 Bft) NO 45 0 min 0,000 mm 0 W/m 16,3 C 19,7 C 3,2 km/h (1 Bft) 100,00 %
31.08.2015 01:50 19,9 C 19,7 C 19,9 C 80 % 0 cb 1015,0 hPa 0,0 l/m 0,0 km/h (0 Bft) NO 45 0 min 0,000 mm 0 W/m 16,3 C 19,9 C 3,2 km/h (1 Bft) 100,00 %
31.08.2015 02:00 19,8 C 19,8 C 19,9 C 81 % 0 cb 1015,0 hPa 0,0 l/m 0,0 km/h (0 Bft) NO 45 0 min 0,025 mm 0 W/m 16,4 C 19,8 C 1,6 km/h (1 Bft) 100,00 %
31.08.2015 02:10 19,5 C 19,5 C 19,8 C 82 % 0 cb 1015,0 hPa 0,0 l/m 0,0 km/h (0 Bft) N 0 0 min 0,000 mm 0 W/m 16,3 C 19,5 C 0,0 km/h (0 Bft) 100,00 %
31.08.2015 02:20 19,2 C 19,2 C 19,5 C 83 % 0 cb 1015,0 hPa 0,0 l/m 0,0 km/h (0 Bft) N 0 0 min 0,000 mm 0 W/m 16,2 C 19,2 C 0,0 km/h (0 Bft) 100,00 %
31.08.2015 02:30 19,0 C 19,0 C 19,2 C 83 % 0 cb 1014,9 hPa 0,0 l/m 0,0 km/h (0 Bft) NO 45 0 min 0,000 mm 0 W/m 16,0 C 19,0 C 1,6 km/h (1 Bft) 100,00 %
31.08.2015 02:40 18,8 C 18,8 C 19,0 C 82 % 0 cb 1014,8 hPa 0,0 l/m 1,6 km/h (1 Bft) NO 45 0 min 0,000 mm 0 W/m 15,7 C 18,8 C 4,8 km/h (1 Bft) 100,00 %
31.08.2015 02:50 19,0 C 18,8 C 19,0 C 82 % 0 cb 1014,8 hPa 0,0 l/m 1,6 km/h (1 Bft) NO 45 0 min 0,000 mm 0 W/m 15,9 C 19,0 C 4,8 km/h (1 Bft) 100,00 %
31.08.2015 03:00 19,1 C 19,0 C 19,1 C 83 % 0 cb 1014,8 hPa 0,0 l/m 0,0 km/h (0 Bft) NO 45 0 min 0,025 mm 0 W/m 16,1 C 19,1 C 3,2 km/h (1 Bft) 100,00 %
31.08.2015 03:10 18,9 C 18,9 C 19,1 C 84 % 0 cb 1014,8 hPa 0,0 l/m 0,0 km/h (0 Bft) NO 45 0 min 0,000 mm 0 W/m 16,1 C 18,9 C 1,6 km/h (1 Bft) 100,00 %
31.08.2015 03:20 18,8 C 18,8 C 18,9 C 83 % 0 cb 1014,8 hPa 0,0 l/m 0,0 km/h (0 Bft) NO 45 0 min 0,000 mm 0 W/m 15,8 C 18,8 C 3,2 km/h (1 Bft) 100,00 %
31.08.2015 03:30 18,8 C 18,8 C 18,8 C 84 % 0 cb 1014,7 hPa 0,0 l/m 1,6 km/h (1 Bft) NO 45 0 min 0,000 mm 0 W/m 16,0 C 18,8 C 3,2 km/h (1 Bft) 100,00 %
31.08.2015 03:40 18,8 C 18,8 C 18,8 C 84 % 0 cb 1014,7 hPa 0,0 l/m 0,0 km/h (0 Bft) NO 45 0 min 0,000 mm 0 W/m 16,0 C 18,8 C 3,2 km/h (1 Bft) 100,00 %
31.08.2015 03:50 18,7 C 18,7 C 18,8 C 84 % 0 cb 1014,6 hPa 0,0 l/m 0,0 km/h (0 Bft) NO 45 0 min 0,000 mm 0 W/m 15,9 C 18,7 C 1,6 km/h (1 Bft) 100,00 %
31.08.2015 04:00 18,4 C 18,4 C 18,7 C 85 % 0 cb 1014,6 hPa 0,0 l/m 0,0 km/h (0 Bft) NO 45 0 min 0,025 mm 0 W/m 15,8 C 18,4 C 1,6 km/h (1 Bft) 100,00 %
31.08.2015 04:10 18,2 C 18,1 C 18,4 C 86 % 0 cb 1014,6 hPa 0,0 l/m 0,0 km/h (0 Bft) NO 45 0 min 0,000 mm 0 W/m 15,8 C 18,2 C 1,6 km/h (1 Bft) 100,00 %
31.08.2015 04:20 17,9 C 17,9 C 18,2 C 88 % 0 cb 1014,6 hPa 0,0 l/m 0,0 km/h (0 Bft) NO 45 0 min 0,000 mm 0 W/m 15,9 C 17,9 C 1,6 km/h (1 Bft) 100,00 %
31.08.2015 04:30 17,8 C 17,8 C 17,9 C 89 % 0 cb 1014,6 hPa 0,0 l/m 1,6 km/h (1 Bft) NO 45 0 min 0,000 mm 0 W/m 16,0 C 17,8 C 3,2 km/h (1 Bft) 100,00 %
31.08.2015 04:40 17,6 C 17,6 C 17,8 C 89 % 0 cb 1014,5 hPa 0,0 l/m 0,0 km/h (0 Bft) NO 45 0 min 0,000 mm 0 W/m 15,8 C 17,6 C 1,6 km/h (1 Bft) 100,00 %
31.08.2015 04:50 17,3 C 17,3 C 17,6 C 89 % 0 cb 1014,6 hPa 0,0 l/m 1,6 km/h (1 Bft) NO 45 0 min 0,000 mm 0 W/m 15,5 C 17,3 C 3,2 km/h (1 Bft) 100,00 %
31.08.2015 05:00 17,3 C 17,3 C 17,3 C 88 % 0 cb 1014,6 hPa 0,0 l/m 1,6 km/h (1 Bft) NO 45 0 min 0,000 mm 0 W/m 15,3 C 17,3 C 3,2 km/h (1 Bft) 100,00 %
31.08.2015 05:10 17,2 C 17,2 C 17,3 C 87 % 0 cb 1014,6 hPa 0,0 l/m 0,0 km/h (0 Bft) NO 45 0 min 0,000 mm 0 W/m 15,0 C 17,2 C 1,6 km/h (1 Bft) 100,00 %
31.08.2015 05:20 17,2 C 17,2 C 17,2 C 87 % 0 cb 1014,6 hPa 0,0 l/m 0,0 km/h (0 Bft) NO 45 0 min 0,000 mm 0 W/m 15,0 C 17,2 C 1,6 km/h (1 Bft) 100,00 %
31.08.2015 05:30 17,1 C 17,1 C 17,2 C 87 % 0 cb 1014,6 hPa 0,0 l/m 0,0 km/h (0 Bft) NO 45 0 min 0,000 mm 0 W/m 14,9 C 17,1 C 3,2 km/h (1 Bft) 100,00 %
31.08.2015 05:40 17,1 C 17,1 C 17,1 C 88 % 0 cb 1014,6 hPa 0,0 l/m 0,0 km/h (0 Bft) NO 45 0 min 0,000 mm 0 W/m 15,1 C 17,1 C 1,6 km/h (1 Bft) 100,00 %
31.08.2015 05:50 17,1 C 17,1 C 17,1 C 88 % 0 cb 1014,6 hPa 0,0 l/m 0,0 km/h (0 Bft) N-NO 22 0 min 0,000 mm 0 W/m 15,1 C 17,1 C 3,2 km/h (1 Bft) 100,00 %
31.08.2015 06:00 16,9 C 16,9 C 17,1 C 89 % 0 cb 1014,6 hPa 0,0 l/m 0,0 km/h (0 Bft) N-NO 22 0 min 0,000 mm 0 W/m 15,1 C 16,9 C 3,2 km/h (1 Bft) 100,00 %
31.08.2015 06:10 16,9 C 16,9 C 17,0 C 89 % 0 cb 1014,5 hPa 0,0 l/m 0,0 km/h (0 Bft) N-NO 22 0 min 0,000 mm 0 W/m 15,1 C 16,9 C 1,6 km/h (1 Bft) 100,00 %
31.08.2015 06:20 16,7 C 16,7 C 16,9 C 88 % 0 cb 1014,4 hPa 0,0 l/m 0,0 km/h (0 Bft) N-NO 22 0 min 0,000 mm 0 W/m 14,7 C 16,7 C 1,6 km/h (1 Bft) 100,00 %
31.08.2015 06:30 16,6 C 16,6 C 16,8 C 88 % 0 cb 1014,4 hPa 0,0 l/m 0,0 km/h (0 Bft) N-NO 22 0 min 0,000 mm 0 W/m 14,6 C 16,6 C 1,6 km/h (1 Bft) 100,00 %
31.08.2015 06:40 16,4 C 16,4 C 16,6 C 88 % 0 cb 1014,4 hPa 0,0 l/m 0,0 km/h (0 Bft) N-NO 22 0 min 0,000 mm 0 W/m 14,4 C 16,4 C 1,6 km/h (1 Bft) 100,00 %
31.08.2015 06:50 16,4 C 16,4 C 16,4 C 88 % 0 cb 1014,4 hPa 0,0 l/m 0,0 km/h (0 Bft) N-NO 22 0 min 0,000 mm 5 W/m 14,4 C 16,4 C 1,6 km/h (1 Bft) 100,00 %
31.08.2015 07:00 16,5 C 16,4 C 16,6 C 88 % 0 cb 1014,4 hPa 0,0 l/m 1,6 km/h (1 Bft) N-NO 22 0 min 0,000 mm 11 W/m 14,5 C 16,5 C 3,2 km/h (1 Bft) 100,00 %
31.08.2015 07:10 16,9 C 16,6 C 16,9 C 86 % 0 cb 1014,5 hPa 0,0 l/m 1,6 km/h (1 Bft) N-NO 22 0 min 0,000 mm 19 W/m 14,5 C 16,9 C 3,2 km/h (1 Bft) 100,00 %
31.08.2015 07:20 17,5 C 17,0 C 17,5 C 84 % 0 cb 1014,4 hPa 0,0 l/m 1,6 km/h (1 Bft) NO 45 0 min 0,000 mm 33 W/m 14,8 C 17,5 C 3,2 km/h (1 Bft) 99,56 %
31.08.2015 07:30 17,8 C 17,5 C 17,8 C 84 % 0 cb 1014,5 hPa 0,0 l/m 0,0 km/h (0 Bft) NO 45 0 min 0,000 mm 33 W/m 15,1 C 17,8 C 1,6 km/h (1 Bft) 100,00 %
31.08.2015 07:40 17,8 C 17,7 C 17,8 C 83 % 0 cb 1014,5 hPa 0,0 l/m 0,0 km/h (0 Bft) NO 45 0 min 0,000 mm 32 W/m 14,9 C 17,8 C 3,2 km/h (1 Bft) 100,00 %
31.08.2015 07:50 17,8 C 17,8 C 17,9 C 84 % 0 cb 1014,4 hPa 0,0 l/m 0,0 km/h (0 Bft) NO 45 0 min 0,000 mm 33 W/m 15,1 C 17,8 C 1,6 km/h (1 Bft) 100,00 %
31.08.2015 08:00 17,9 C 17,8 C 17,9 C 84 % 0 cb 1014,3 hPa 0,0 l/m 0,0 km/h (0 Bft) NO 45 0 min 0,025 mm 35 W/m 15,2 C 17,9 C 3,2 km/h (1 Bft) 100,00 %
31.08.2015 08:10 18,2 C 17,9 C 18,2 C 82 % 0 cb 1014,3 hPa 0,0 l/m 1,6 km/h (1 Bft) NO 45 0 min 0,000 mm 132 W/m 15,1 C 18,2 C 3,2 km/h (1 Bft) 100,00 %
31.08.2015 08:20 19,1 C 18,2 C 19,1 C 80 % 0 cb 1014,3 hPa 0,0 l/m 1,6 km/h (1 Bft) O-SO 112 10 min 0,000 mm 169 W/m 15,6 C 19,1 C 4,8 km/h (1 Bft) 100,00 %
31.08.2015 08:30 20,0 C 19,1 C 20,0 C 78 % 0 cb 1014,2 hPa 0,0 l/m 1,6 km/h (1 Bft) SO 135 10 min 0,000 mm 199 W/m 16,0 C 20,0 C 4,8 km/h (1 Bft) 100,00 %
31.08.2015 08:40 20,8 C 20,0 C 20,8 C 72 % 0 cb 1014,3 hPa 0,0 l/m 1,6 km/h (1 Bft) SO 135 10 min 0,000 mm 230 W/m 15,6 C 20,8 C 4,8 km/h (1 Bft) 100,00 %
31.08.2015 08:50 21,5 C 20,8 C 21,5 C 71 % 0 cb 1014,4 hPa 0,0 l/m 1,6 km/h (1 Bft) S-SO 157 10 min 0,000 mm 260 W/m 16,0 C 21,5 C 4,8 km/h (1 Bft) 100,00 %
31.08.2015 09:00 22,1 C 21,5 C 22,1 C 68 % 0 cb 1014,3 hPa 0,0 l/m 1,6 km/h (1 Bft) S-SO 157 10 min 0,127 mm 271 W/m 15,9 C 22,1 C 4,8 km/h (1 Bft) 100,00 %
31.08.2015 09:10 22,4 C 22,1 C 22,4 C 65 % 0 cb 1014,3 hPa 0,0 l/m 1,6 km/h (1 Bft) S-SO 157 10 min 0,000 mm 306 W/m 15,5 C 22,4 C 4,8 km/h (1 Bft) 100,00 %
31.08.2015 09:20 22,8 C 22,4 C 22,8 C 67 % 0 cb 1014,2 hPa 0,0 l/m 1,6 km/h (1 Bft) S 180 10 min 0,000 mm 343 W/m 16,3 C 22,8 C 3,2 km/h (1 Bft) 100,00 %
31.08.2015 09:30 23,3 C 22,8 C 23,3 C 64 % 0 cb 1014,1 hPa 0,0 l/m 1,6 km/h (1 Bft) S 180 10 min 0,000 mm 366 W/m 16,1 C 23,3 C 4,8 km/h (1 Bft) 100,00 %
31.08.2015 09:40 23,4 C 23,3 C 23,4 C 62 % 0 cb 1014,0 hPa 0,0 l/m 1,6 km/h (1 Bft) S 180 10 min 0,000 mm 397 W/m 15,7 C 23,4 C 4,8 km/h (1 Bft) 100,00 %
31.08.2015 09:50 23,6 C 23,4 C 23,6 C 60 % 0 cb 1014,0 hPa 0,0 l/m 1,6 km/h (1 Bft) S 180 10 min 0,000 mm 418 W/m 15,4 C 23,6 C 3,2 km/h (1 Bft) 100,00 %
31.08.2015 10:00 23,8 C 23,6 C 23,8 C 60 % 0 cb 1014,0 hPa 0,0 l/m 1,6 km/h (1 Bft) S 180 10 min 0,229 mm 443 W/m 15,6 C 23,8 C 4,8 km/h (1 Bft) 100,00 %
31.08.2015 10:10 24,1 C 23,8 C 24,1 C 61 % 0 cb 1013,9 hPa 0,0 l/m 1,6 km/h (1 Bft) S 180 10 min 0,000 mm 464 W/m 16,1 C 24,1 C 9,7 km/h (2 Bft) 100,00 %
31.08.2015 10:20 24,5 C 24,1 C 24,5 C 56 % 0 cb 1013,7 hPa 0,0 l/m 3,2 km/h (1 Bft) W 270 10 min 0,000 mm 487 W/m 15,1 C 24,5 C 9,7 km/h (2 Bft) 100,00 %
31.08.2015 10:30 24,9 C 24,5 C 24,9 C 58 % 0 cb 1013,6 hPa 0,0 l/m 3,2 km/h (1 Bft) W 270 10 min 0,000 mm 510 W/m 16,1 C 24,9 C 11,3 km/h (2 Bft) 100,00 %
31.08.2015 10:40 25,2 C 24,9 C 25,2 C 57 % 0 cb 1013,5 hPa 0,0 l/m 3,2 km/h (1 Bft) S 180 10 min 0,000 mm 527 W/m 16,1 C 25,2 C 8,0 km/h (2 Bft) 100,00 %
31.08.2015 10:50 25,5 C 25,2 C 25,6 C 58 % 0 cb 1013,5 hPa 0,0 l/m 1,6 km/h (1 Bft) S-SW 202 10 min 0,000 mm 543 W/m 16,6 C 25,5 C 6,4 km/h (2 Bft) 100,00 %
31.08.2015 11:00 25,8 C 25,5 C 25,8 C 56 % 0 cb 1013,5 hPa 0,0 l/m 1,6 km/h (1 Bft) SW 225 10 min 0,330 mm 564 W/m 16,3 C 25,8 C 8,0 km/h (2 Bft) 100,00 %
31.08.2015 11:10 26,1 C 25,8 C 26,1 C 54 % 0 cb 1013,5 hPa 0,0 l/m 4,8 km/h (1 Bft) SW 225 10 min 0,000 mm 582 W/m 16,0 C 26,1 C 11,3 km/h (2 Bft) 100,00 %
31.08.2015 11:20 26,4 C 26,1 C 26,4 C 52 % 0 cb 1013,5 hPa 0,0 l/m 4,8 km/h (1 Bft) W-SW 247 10 min 0,000 mm 596 W/m 15,7 C 26,4 C 14,5 km/h (3 Bft) 100,00 %
31.08.2015 11:30 26,7 C 26,4 C 26,7 C 51 % 0 cb 1013,5 hPa 0,0 l/m 6,4 km/h (2 Bft) SW 225 10 min 0,000 mm 613 W/m 15,7 C 26,7 C 14,5 km/h (3 Bft) 100,00 %
31.08.2015 11:40 27,1 C 26,7 C 27,1 C 50 % 0 cb 1013,4 hPa 0,0 l/m 6,4 km/h (2 Bft) SW 225 10 min 0,000 mm 628 W/m 15,8 C 27,1 C 14,5 km/h (3 Bft) 100,00 %
31.08.2015 11:50 27,3 C 27,1 C 27,3 C 47 % 0 cb 1013,3 hPa 0,0 l/m 6,4 km/h (2 Bft) W-SW 247 10 min 0,000 mm 645 W/m 15,0 C 27,3 C 17,7 km/h (3 Bft) 100,00 %
31.08.2015 12:00 27,6 C 27,3 C 27,6 C 48 % 0 cb 1013,3 hPa 0,0 l/m 6,4 km/h (2 Bft) W-SW 247 10 min 0,432 mm 657 W/m 15,6 C 27,6 C 17,7 km/h (3 Bft) 100,00 %
31.08.2015 12:10 27,9 C 27,6 C 27,9 C 45 % 0 cb 1013,0 hPa 0,0 l/m 4,8 km/h (1 Bft) SW 225 10 min 0,000 mm 666 W/m 14,8 C 27,9 C 12,9 km/h (3 Bft) 100,00 %
31.08.2015 12:20 28,2 C 27,9 C 28,2 C 45 % 0 cb 1012,9 hPa 0,0 l/m 6,4 km/h (2 Bft) SW 225 10 min 0,000 mm 675 W/m 15,1 C 28,2 C 16,1 km/h (3 Bft) 100,00 %
31.08.2015 12:30 28,6 C 28,2 C 28,6 C 43 % 0 cb 1012,8 hPa 0,0 l/m 8,0 km/h (2 Bft) W-SW 247 10 min 0,000 mm 684 W/m 14,8 C 28,6 C 17,7 km/h (3 Bft) 100,00 %
31.08.2015 12:40 28,9 C 28,6 C 28,9 C 44 % 0 cb 1012,7 hPa 0,0 l/m 6,4 km/h (2 Bft) W-SW 247 10 min 0,000 mm 689 W/m 15,4 C 28,9 C 16,1 km/h (3 Bft) 100,00 %
31.08.2015 12:50 29,2 C 28,9 C 29,2 C 41 % 0 cb 1012,7 hPa 0,0 l/m 6,4 km/h (2 Bft) W 270 10 min 0,000 mm 698 W/m 14,6 C 29,2 C 20,9 km/h (4 Bft) 100,00 %
31.08.2015 13:00 29,2 C 29,2 C 29,3 C 39 % 0 cb 1012,5 hPa 0,0 l/m 11,3 km/h (2 Bft) W-SW 247 10 min 0,508 mm 701 W/m 13,8 C 29,2 C 27,4 km/h (4 Bft) 100,00 %
31.08.2015 13:10 29,2 C 29,2 C 29,2 C 40 % 0 cb 1012,4 hPa 0,0 l/m 11,3 km/h (2 Bft) SW 225 10 min 0,000 mm 710 W/m 14,2 C 29,2 C 27,4 km/h (4 Bft) 100,00 %
31.08.2015 13:20 29,2 C 29,2 C 29,2 C 39 % 0 cb 1012,4 hPa 0,0 l/m 11,3 km/h (2 Bft) W-SW 247 10 min 0,000 mm 712 W/m 13,8 C 29,2 C 32,2 km/h (5 Bft) 100,00 %
31.08.2015 13:30 29,4 C 29,2 C 29,4 C 38 % 0 cb 1012,2 hPa 0,0 l/m 9,7 km/h (2 Bft) W 270 10 min 0,000 mm 712 W/m 13,6 C 29,4 C 19,3 km/h (3 Bft) 100,00 %
31.08.2015 13:40 29,6 C 29,4 C 29,6 C 37 % 0 cb 1012,1 hPa 0,0 l/m 9,7 km/h (2 Bft) W 270 10 min 0,000 mm 715 W/m 13,3 C 29,6 C 20,9 km/h (4 Bft) 100,00 %
31.08.2015 13:50 29,9 C 29,6 C 29,9 C 38 % 0 cb 1011,9 hPa 0,0 l/m 9,7 km/h (2 Bft) SW 225 10 min 0,000 mm 715 W/m 14,0 C 29,9 C 24,1 km/h (4 Bft) 100,00 %
31.08.2015 14:00 30,2 C 29,9 C 30,2 C 36 % 0 cb 1011,8 hPa 0,0 l/m 9,7 km/h (2 Bft) W 270 10 min 0,584 mm 719 W/m 13,4 C 30,2 C 25,7 km/h (4 Bft) 100,00 %
31.08.2015 14:10 30,2 C 30,2 C 30,2 C 37 % 0 cb 1011,7 hPa 0,0 l/m 11,3 km/h (2 Bft) SW 225 10 min 0,000 mm 714 W/m 13,9 C 30,2 C 25,7 km/h (4 Bft) 100,00 %
31.08.2015 14:20 30,2 C 30,2 C 30,2 C 39 % 0 cb 1011,5 hPa 0,0 l/m 12,9 km/h (3 Bft) W-SW 247 10 min 0,000 mm 708 W/m 14,7 C 30,2 C 30,6 km/h (5 Bft) 100,00 %
31.08.2015 14:30 30,3 C 30,2 C 30,4 C 37 % 0 cb 1011,4 hPa 0,0 l/m 11,3 km/h (2 Bft) W-SW 247 10 min 0,000 mm 700 W/m 14,0 C 30,3 C 38,6 km/h (5 Bft) 100,00 %
31.08.2015 14:40 30,5 C 30,3 C 30,5 C 37 % 0 cb 1011,2 hPa 0,0 l/m 9,7 km/h (2 Bft) W-SW 247 10 min 0,000 mm 698 W/m 14,1 C 30,5 C 24,1 km/h (4 Bft) 100,00 %
31.08.2015 14:50 30,6 C 30,5 C 30,6 C 37 % 0 cb 1011,1 hPa 0,0 l/m 12,9 km/h (3 Bft) W-SW 247 10 min 0,000 mm 694 W/m 14,2 C 30,6 C 33,8 km/h (5 Bft) 100,00 %
31.08.2015 15:00 30,6 C 30,6 C 30,6 C 34 % 0 cb 1011,1 hPa 0,0 l/m 14,5 km/h (3 Bft) W-SW 247 10 min 0,610 mm 689 W/m 12,9 C 30,6 C 29,0 km/h (5 Bft) 100,00 %
31.08.2015 15:10 30,7 C 30,6 C 30,7 C 35 % 0 cb 1011,0 hPa 0,0 l/m 12,9 km/h (3 Bft) W-SW 247 10 min 0,000 mm 666 W/m 13,5 C 30,7 C 27,4 km/h (4 Bft) 100,00 %
31.08.2015 15:20 30,6 C 30,6 C 30,8 C 34 % 0 cb 1011,1 hPa 0,0 l/m 16,1 km/h (3 Bft) W-SW 247 10 min 0,000 mm 654 W/m 12,9 C 30,6 C 40,2 km/h (6 Bft) 100,00 %
31.08.2015 15:30 30,6 C 30,6 C 30,6 C 36 % 0 cb 1011,0 hPa 0,0 l/m 12,9 km/h (3 Bft) W-SW 247 10 min 0,000 mm 652 W/m 13,8 C 30,6 C 40,2 km/h (6 Bft) 100,00 %
31.08.2015 15:40 30,8 C 30,6 C 30,8 C 35 % 0 cb 1011,0 hPa 0,0 l/m 11,3 km/h (2 Bft) W 270 10 min 0,000 mm 629 W/m 13,5 C 30,8 C 27,4 km/h (4 Bft) 100,00 %
31.08.2015 15:50 30,7 C 30,7 C 30,8 C 34 % 0 cb 1010,9 hPa 0,0 l/m 12,9 km/h (3 Bft) SW 225 10 min 0,000 mm 610 W/m 13,0 C 30,7 C 41,8 km/h (6 Bft) 100,00 %
31.08.2015 16:00 30,6 C 30,6 C 30,7 C 36 % 0 cb 1010,7 hPa 0,0 l/m 12,9 km/h (3 Bft) SW 225 10 min 0,584 mm 596 W/m 13,8 C 30,6 C 35,4 km/h (5 Bft) 100,00 %
31.08.2015 16:10 30,5 C 30,5 C 30,6 C 37 % 0 cb 1010,4 hPa 0,0 l/m 14,5 km/h (3 Bft) SW 225 10 min 0,000 mm 577 W/m 14,1 C 30,5 C 33,8 km/h (5 Bft) 100,00 %
31.08.2015 16:20 30,7 C 30,5 C 30,7 C 36 % 0 cb 1010,3 hPa 0,0 l/m 9,7 km/h (2 Bft) W 270 10 min 0,000 mm 559 W/m 13,9 C 30,7 C 25,7 km/h (4 Bft) 100,00 %
31.08.2015 16:30 30,9 C 30,7 C 30,9 C 35 % 0 cb 1010,3 hPa 0,0 l/m 11,3 km/h (2 Bft) W-SW 247 10 min 0,000 mm 540 W/m 13,6 C 30,9 C 25,7 km/h (4 Bft) 100,00 %
31.08.2015 16:40 30,8 C 30,8 C 30,9 C 36 % 0 cb 1010,2 hPa 0,0 l/m 11,3 km/h (2 Bft) W-SW 247 10 min 0,000 mm 520 W/m 14,0 C 30,8 C 30,6 km/h (5 Bft) 100,00 %
31.08.2015 16:50 30,7 C 30,7 C 30,8 C 36 % 0 cb 1010,1 hPa 0,0 l/m 11,3 km/h (2 Bft) W-SW 247 10 min 0,000 mm 496 W/m 13,9 C 30,7 C 30,6 km/h (5 Bft) 100,00 %
31.08.2015 17:00 30,7 C 30,7 C 30,7 C 35 % 0 cb 1010,1 hPa 0,0 l/m 11,3 km/h (2 Bft) W-SW 247 10 min 0,483 mm 459 W/m 13,5 C 30,7 C 35,4 km/h (5 Bft) 100,00 %
31.08.2015 17:10 30,7 C 30,7 C 30,7 C 37 % 0 cb 1010,0 hPa 0,0 l/m 11,3 km/h (2 Bft) W 270 10 min 0,000 mm 443 W/m 14,3 C 30,7 C 35,4 km/h (5 Bft) 100,00 %
31.08.2015 17:20 30,8 C 30,7 C 30,8 C 36 % 0 cb 1010,0 hPa 0,0 l/m 9,7 km/h (2 Bft) W 270 10 min 0,000 mm 410 W/m 14,0 C 30,8 C 29,0 km/h (5 Bft) 100,00 %
31.08.2015 17:30 30,7 C 30,7 C 30,8 C 36 % 0 cb 1010,0 hPa 0,0 l/m 9,7 km/h (2 Bft) W 270 10 min 0,000 mm 200 W/m 13,9 C 30,7 C 25,7 km/h (4 Bft) 100,00 %
31.08.2015 17:40 30,7 C 30,6 C 30,7 C 39 % 0 cb 1010,0 hPa 0,0 l/m 6,4 km/h (2 Bft) W 270 0 min 0,000 mm 70 W/m 15,1 C 30,7 C 30,6 km/h (5 Bft) 100,00 %
31.08.2015 17:50 30,6 C 30,6 C 30,7 C 38 % 0 cb 1009,9 hPa 0,0 l/m 9,7 km/h (2 Bft) W-SW 247 0 min 0,000 mm 67 W/m 14,6 C 30,6 C 24,1 km/h (4 Bft) 100,00 %
31.08.2015 18:00 30,4 C 30,4 C 30,6 C 38 % 0 cb 1009,9 hPa 0,0 l/m 9,7 km/h (2 Bft) W 270 0 min 0,229 mm 70 W/m 14,5 C 30,4 C 24,1 km/h (4 Bft) 100,00 %
31.08.2015 18:10 30,3 C 30,3 C 30,4 C 39 % 0 cb 1009,8 hPa 0,0 l/m 6,4 km/h (2 Bft) W-SW 247 0 min 0,000 mm 69 W/m 14,8 C 30,3 C 24,1 km/h (4 Bft) 100,00 %
31.08.2015 18:20 30,3 C 30,3 C 30,3 C 39 % 0 cb 1009,9 hPa 0,0 l/m 8,0 km/h (2 Bft) W 270 0 min 0,000 mm 70 W/m 14,8 C 30,3 C 20,9 km/h (4 Bft) 100,00 %
31.08.2015 18:30 30,2 C 30,2 C 30,3 C 38 % 0 cb 1009,7 hPa 0,0 l/m 8,0 km/h (2 Bft) W 270 0 min 0,000 mm 56 W/m 14,3 C 30,2 C 24,1 km/h (4 Bft) 100,00 %
31.08.2015 18:40 29,8 C 29,8 C 30,2 C 39 % 0 cb 1009,8 hPa 0,0 l/m 6,4 km/h (2 Bft) W-NW 292 0 min 0,000 mm 51 W/m 14,3 C 29,8 C 20,9 km/h (4 Bft) 100,00 %
31.08.2015 18:50 29,5 C 29,5 C 29,8 C 40 % 0 cb 1009,7 hPa 0,0 l/m 4,8 km/h (1 Bft) W-NW 292 0 min 0,000 mm 49 W/m 14,5 C 29,5 C 16,1 km/h (3 Bft) 100,00 %
31.08.2015 19:00 29,2 C 29,2 C 29,5 C 42 % 0 cb 1009,6 hPa 0,0 l/m 4,8 km/h (1 Bft) W-SW 247 0 min 0,127 mm 46 W/m 14,9 C 29,2 C 16,1 km/h (3 Bft) 100,00 %
31.08.2015 19:10 28,8 C 28,8 C 29,2 C 42 % 0 cb 1009,6 hPa 0,0 l/m 3,2 km/h (1 Bft) SW 225 0 min 0,000 mm 44 W/m 14,6 C 28,8 C 11,3 km/h (2 Bft) 100,00 %
31.08.2015 19:20 28,4 C 28,4 C 28,8 C 43 % 0 cb 1009,5 hPa 0,0 l/m 1,6 km/h (1 Bft) NW 315 0 min 0,000 mm 46 W/m 14,6 C 28,4 C 9,7 km/h (2 Bft) 100,00 %
31.08.2015 19:30 28,1 C 28,1 C 28,4 C 43 % 0 cb 1009,5 hPa 0,0 l/m 3,2 km/h (1 Bft) W-NW 292 0 min 0,000 mm 46 W/m 14,3 C 28,1 C 9,7 km/h (2 Bft) 100,00 %
31.08.2015 19:40 27,7 C 27,7 C 28,1 C 45 % 0 cb 1009,8 hPa 0,0 l/m 4,8 km/h (1 Bft) NW 315 0 min 0,000 mm 33 W/m 14,7 C 27,7 C 14,5 km/h (3 Bft) 100,00 %
31.08.2015 19:50 27,4 C 27,4 C 27,7 C 45 % 0 cb 1009,8 hPa 0,0 l/m 8,0 km/h (2 Bft) NW 315 0 min 0,000 mm 16 W/m 14,4 C 27,4 C 16,1 km/h (3 Bft) 99,56 %
31.08.2015 20:00 27,1 C 27,1 C 27,3 C 46 % 0 cb 1009,8 hPa 0,0 l/m 4,8 km/h (1 Bft) NW 315 0 min 0,076 mm 12 W/m 14,5 C 27,1 C 16,1 km/h (3 Bft) 100,00 %
31.08.2015 20:10 26,8 C 26,7 C 27,1 C 47 % 0 cb 1009,9 hPa 0,0 l/m 3,2 km/h (1 Bft) NW 315 0 min 0,000 mm 12 W/m 14,5 C 26,8 C 11,3 km/h (2 Bft) 100,00 %
31.08.2015 20:20 26,4 C 26,4 C 26,7 C 48 % 0 cb 1009,9 hPa 0,0 l/m 1,6 km/h (1 Bft) NW 315 0 min 0,000 mm 5 W/m 14,5 C 26,4 C 6,4 km/h (2 Bft) 100,00 %
31.08.2015 20:30 25,9 C 25,9 C 26,4 C 49 % 0 cb 1010,0 hPa 0,0 l/m 1,6 km/h (1 Bft) NW 315 0 min 0,000 mm 0 W/m 14,4 C 25,9 C 4,8 km/h (1 Bft) 100,00 %
31.08.2015 20:40 25,5 C 25,5 C 25,9 C 52 % 0 cb 1010,2 hPa 0,0 l/m 0,0 km/h (0 Bft) NW 315 0 min 0,000 mm 0 W/m 14,9 C 25,5 C 1,6 km/h (1 Bft) 100,00 %
31.08.2015 20:50 25,0 C 25,0 C 25,5 C 54 % 0 cb 1010,2 hPa 0,0 l/m 0,0 km/h (0 Bft) NW 315 0 min 0,000 mm 0 W/m 15,0 C 25,0 C 1,6 km/h (1 Bft) 100,00 %
31.08.2015 21:00 24,6 C 24,6 C 25,0 C 54 % 0 cb 1010,2 hPa 0,0 l/m 1,6 km/h (1 Bft) NW 315 0 min 0,025 mm 0 W/m 14,7 C 24,6 C 3,2 km/h (1 Bft) 100,00 %
31.08.2015 21:10 24,2 C 24,2 C 24,6 C 55 % 0 cb 1010,3 hPa 0,0 l/m 1,6 km/h (1 Bft) NW 315 0 min 0,000 mm 0 W/m 14,6 C 24,2 C 4,8 km/h (1 Bft) 100,00 %
31.08.2015 21:20 24,1 C 24,1 C 24,2 C 56 % 0 cb 1010,4 hPa 0,0 l/m 1,6 km/h (1 Bft) NW 315 0 min 0,000 mm 0 W/m 14,8 C 24,1 C 4,8 km/h (1 Bft) 100,00 %
31.08.2015 21:30 23,8 C 23,8 C 24,1 C 56 % 0 cb 1010,5 hPa 0,0 l/m 1,6 km/h (1 Bft) NW 315 0 min 0,000 mm 0 W/m 14,5 C 23,8 C 4,8 km/h (1 Bft) 100,00 %
31.08.2015 21:40 23,7 C 23,7 C 23,8 C 56 % 0 cb 1010,5 hPa 0,0 l/m 1,6 km/h (1 Bft) NW 315 0 min 0,000 mm 0 W/m 14,4 C 23,7 C 3,2 km/h (1 Bft) 100,00 %
31.08.2015 21:50 23,6 C 23,5 C 23,7 C 57 % 0 cb 1010,5 hPa 0,0 l/m 1,6 km/h (1 Bft) NW 315 0 min 0,000 mm 0 W/m 14,6 C 23,6 C 4,8 km/h (1 Bft) 100,00 %
31.08.2015 22:00 23,4 C 23,4 C 23,5 C 57 % 0 cb 1010,4 hPa 0,0 l/m 1,6 km/h (1 Bft) NW 315 0 min 0,051 mm 0 W/m 14,4 C 23,4 C 4,8 km/h (1 Bft) 100,00 %
31.08.2015 22:10 23,2 C 23,2 C 23,4 C 58 % 0 cb 1010,4 hPa 0,0 l/m 1,6 km/h (1 Bft) NW 315 0 min 0,000 mm 0 W/m 14,5 C 23,2 C 4,8 km/h (1 Bft) 100,00 %
31.08.2015 22:20 23,0 C 23,0 C 23,2 C 59 % 0 cb 1010,5 hPa 0,0 l/m 1,6 km/h (1 Bft) NW 315 0 min 0,000 mm 0 W/m 14,5 C 23,0 C 4,8 km/h (1 Bft) 100,00 %
31.08.2015 22:30 22,8 C 22,8 C 23,0 C 60 % 0 cb 1010,5 hPa 0,0 l/m 1,6 km/h (1 Bft) NW 315 0 min 0,000 mm 0 W/m 14,6 C 22,8 C 4,8 km/h (1 Bft) 100,00 %
31.08.2015 22:40 22,6 C 22,6 C 22,8 C 61 % 0 cb 1010,4 hPa 0,0 l/m 1,6 km/h (1 Bft) NW 315 0 min 0,000 mm 0 W/m 14,7 C 22,6 C 3,2 km/h (1 Bft) 100,00 %
31.08.2015 22:50 22,4 C 22,4 C 22,6 C 62 % 0 cb 1010,3 hPa 0,0 l/m 1,6 km/h (1 Bft) NW 315 0 min 0,000 mm 0 W/m 14,8 C 22,4 C 8,0 km/h (2 Bft) 100,00 %
31.08.2015 23:00 22,5 C 22,4 C 22,6 C 62 % 0 cb 1010,3 hPa 0,0 l/m 1,6 km/h (1 Bft) NW 315 0 min 0,051 mm 0 W/m 14,8 C 22,5 C 4,8 km/h (1 Bft) 100,00 %
31.08.2015 23:10 22,6 C 22,5 C 22,6 C 63 % 0 cb 1010,3 hPa 0,0 l/m 1,6 km/h (1 Bft) NW 315 0 min 0,000 mm 0 W/m 15,2 C 22,6 C 6,4 km/h (2 Bft) 100,00 %
31.08.2015 23:20 22,3 C 22,3 C 22,6 C 64 % 0 cb 1010,4 hPa 0,0 l/m 1,6 km/h (1 Bft) NW 315 0 min 0,000 mm 0 W/m 15,2 C 22,3 C 4,8 km/h (1 Bft) 100,00 %
31.08.2015 23:30 21,8 C 21,8 C 22,3 C 66 % 0 cb 1010,4 hPa 0,0 l/m 1,6 km/h (1 Bft) SW 225 0 min 0,000 mm 0 W/m 15,2 C 21,8 C 3,2 km/h (1 Bft) 100,00 %
31.08.2015 23:40 21,4 C 21,4 C 21,8 C 68 % 0 cb 1010,3 hPa 0,0 l/m 0,0 km/h (0 Bft) SW 225 0 min 0,000 mm 0 W/m 15,2 C 21,4 C 1,6 km/h (1 Bft) 100,00 %
31.08.2015 23:50 20,8 C 20,8 C 21,4 C 70 % 0 cb 1010,2 hPa 0,0 l/m 1,6 km/h (1 Bft) SW 225 0 min 0,000 mm 0 W/m 15,1 C 20,8 C 3,2 km/h (1 Bft) 100,00 %
_ Min-Zeit 06:40 06:40 06:50 15:00 00:00 19:20 - 00:00 - - - - - 15:00 06:40 02:10 01:10
Minimum _ 16,4 C 16,4 C 16,4 C 34 % 0 cb 1009,5 hPa - 0,0 km/h (0 Bft) - - - - - 12,9 C 16,4 C 0,0 km/h (0 Bft) 96,05 %
_ Max-Zeit 16:30 16:40 16:30 04:30 00:00 00:30 00:00 15:20 - - 08:20 15:00 14:00 00:00 16:30 15:50 00:00
Maximum _ 30,9 C 30,8 C 30,9 C 89 % 0 cb 1015,3 hPa 0,0 l/m 16,1 km/h
W-SW (3 Bft)
- - 10 min 0,610 mm 719 W/m 17,6 C 30,9 C 41,8 km/h
SW (6 Bft)
100,00 %
Durchschnitt _ 24,0 C 23,8 C 24,1 C 61 % 0 cb 1012,6 hPa #0,0 l/m 4,0 km/h (1 Bft) W-SW - #9:20 h #4,596 mm 389 W/m 15,1 C 24,0 C 11,3 km/h (2 Bft) 99,97 %
Wetterstation Gdesweiler